createdAt,value
2022-09-23T00:01:34.890Z,100.00
2022-09-23T00:04:01.236Z,100.00
2022-09-23T00:06:30.635Z,99.67
2022-09-23T00:08:56.953Z,100.00
2022-09-23T00:11:26.886Z,98.50
2022-09-23T00:13:54.020Z,97.69
2022-09-23T00:16:24.455Z,99.21
2022-09-23T00:18:50.830Z,98.47
2022-09-23T00:21:17.953Z,95.18
2022-09-23T00:23:44.372Z,91.70
2022-09-23T00:26:12.055Z,89.77
2022-09-23T00:28:38.443Z,88.43
2022-09-23T00:31:05.394Z,89.30
2022-09-23T00:33:31.811Z,86.81
2022-09-23T00:35:58.812Z,87.50
2022-09-23T00:38:25.145Z,87.53
2022-09-23T00:40:51.627Z,86.59
2022-09-23T00:43:18.361Z,87.84
2022-09-23T00:45:48.609Z,88.81
2022-09-23T00:48:16.986Z,89.12
2022-09-23T00:50:43.983Z,89.59
2022-09-23T00:53:11.324Z,90.14
2022-09-23T00:55:39.412Z,89.68
2022-09-23T00:58:06.538Z,90.65
2022-09-23T01:00:33.832Z,91.66
2022-09-23T01:03:00.501Z,93.10
2022-09-23T01:05:26.848Z,93.28
2022-09-23T01:07:53.866Z,92.65
2022-09-23T01:10:21.432Z,92.16
2022-09-23T01:13:08.469Z,92.24
2022-09-23T01:15:51.804Z,91.68
2022-09-23T01:18:53.621Z,93.68
2022-09-23T01:21:25.600Z,94.25
2022-09-23T01:23:52.813Z,92.46
2022-09-23T01:26:24.447Z,93.18
2022-09-23T01:28:57.202Z,92.21
2022-09-23T01:31:29.801Z,92.68
2022-09-23T01:33:56.902Z,92.17
2022-09-23T01:36:31.432Z,91.08
2022-09-23T01:39:08.589Z,91.69
2022-09-23T01:41:44.196Z,91.60
2022-09-23T01:44:17.482Z,92.03
2022-09-23T01:46:43.760Z,92.88
2022-09-23T01:49:13.124Z,92.31
2022-09-23T01:51:40.613Z,90.79
2022-09-23T01:54:11.759Z,89.90
2022-09-23T01:56:38.020Z,90.13
2022-09-23T01:59:10.379Z,88.81
2022-09-23T02:01:39.265Z,88.87
2022-09-23T02:04:25.292Z,87.68
2022-09-23T02:06:53.091Z,86.87
2022-09-23T02:09:22.118Z,85.73
2022-09-23T02:11:48.516Z,85.57
2022-09-23T02:14:20.884Z,86.36
2022-09-23T02:16:56.975Z,86.94
2022-09-23T02:19:34.256Z,87.19
2022-09-23T02:22:05.446Z,86.48
2022-09-23T02:24:32.160Z,86.20
2022-09-23T02:27:18.309Z,85.86
2022-09-23T02:29:44.586Z,85.54
2022-09-23T02:32:16.859Z,85.18
2022-09-23T02:35:03.509Z,85.98
2022-09-23T02:37:39.119Z,85.18
2022-09-23T02:40:31.381Z,86.09
2022-09-23T02:42:57.693Z,85.78
2022-09-23T02:45:24.114Z,85.30
2022-09-23T02:47:52.756Z,85.22
2022-09-23T02:50:19.280Z,85.10
2022-09-23T02:52:46.245Z,85.49
2022-09-23T02:55:13.008Z,85.49
2022-09-23T02:57:39.331Z,86.62
2022-09-23T03:00:05.929Z,86.30
2022-09-23T03:02:49.234Z,85.76
2022-09-23T03:05:15.948Z,85.92
2022-09-23T03:08:02.290Z,86.19
2022-09-23T03:10:35.769Z,86.34
2022-09-23T03:13:14.649Z,86.57
2022-09-23T03:15:48.307Z,87.35
2022-09-23T03:18:26.025Z,89.36
2022-09-23T03:20:53.877Z,88.11
2022-09-23T03:23:23.528Z,88.24
2022-09-23T03:25:49.935Z,87.69
2022-09-23T03:28:17.324Z,87.02
2022-09-23T03:30:44.055Z,87.69
2022-09-23T03:33:12.064Z,88.26
2022-09-23T03:36:01.424Z,88.03
2022-09-23T03:38:30.246Z,89.12
2022-09-23T03:40:56.645Z,87.76
2022-09-23T03:43:22.975Z,87.09
2022-09-23T03:45:49.378Z,87.40
2022-09-23T03:48:15.807Z,87.67
2022-09-23T03:50:42.199Z,88.42
2022-09-23T03:53:08.576Z,87.58
2022-09-23T03:55:34.977Z,88.38
2022-09-23T03:58:03.153Z,88.39
2022-09-23T04:00:29.514Z,88.55
2022-09-23T04:02:56.747Z,88.77
2022-09-23T04:05:23.393Z,88.30
2022-09-23T04:07:51.055Z,87.87
2022-09-23T04:10:17.411Z,86.56
2022-09-23T04:12:43.722Z,87.95
2022-09-23T04:15:10.299Z,86.56
2022-09-23T04:17:36.611Z,86.94
2022-09-23T04:20:03.094Z,87.00
2022-09-23T04:22:29.452Z,86.50
2022-09-23T04:24:56.204Z,87.27
2022-09-23T04:27:22.562Z,87.18
2022-09-23T04:29:48.922Z,87.89
2022-09-23T04:32:15.251Z,88.99
2022-09-23T04:34:41.565Z,88.55
2022-09-23T04:37:07.930Z,90.54
2022-09-23T04:39:34.252Z,91.90
2022-09-23T04:42:00.589Z,93.25
2022-09-23T04:44:28.548Z,95.07
2022-09-23T04:46:54.949Z,96.55
2022-09-23T04:49:21.336Z,97.24
2022-09-23T04:51:47.851Z,98.37
2022-09-23T04:54:17.243Z,99.13
2022-09-23T04:56:45.298Z,95.30
2022-09-23T04:59:11.612Z,92.45
2022-09-23T05:01:38.290Z,90.07
2022-09-23T05:04:05.963Z,90.34
2022-09-23T05:06:34.446Z,90.56
2022-09-23T05:09:00.879Z,91.08
2022-09-23T05:11:27.287Z,90.68
2022-09-23T05:13:53.958Z,90.93
2022-09-23T05:16:20.574Z,90.05
2022-09-23T05:18:46.989Z,90.88
2022-09-23T05:21:13.790Z,90.10
2022-09-23T05:23:40.716Z,90.87
2022-09-23T05:26:07.681Z,88.16
2022-09-23T05:28:34.240Z,89.55
2022-09-23T05:31:04.367Z,88.39
2022-09-23T05:33:31.418Z,86.98
2022-09-23T05:35:57.988Z,86.57
2022-09-23T05:38:24.356Z,86.77
2022-09-23T05:41:03.809Z,87.30
2022-09-23T05:43:30.348Z,86.70
2022-09-23T05:46:08.692Z,87.61
2022-09-23T05:48:35.166Z,86.63
2022-09-23T05:51:01.668Z,86.07
2022-09-23T05:53:29.313Z,87.85
2022-09-23T05:55:56.448Z,87.15
2022-09-23T05:58:23.566Z,87.28
2022-09-23T06:00:50.066Z,86.88
2022-09-23T06:03:16.890Z,85.15
2022-09-23T06:05:43.252Z,85.87
2022-09-23T06:08:09.581Z,85.65
2022-09-23T06:10:36.692Z,84.50
2022-09-23T06:13:03.164Z,85.85
2022-09-23T06:15:29.532Z,86.04
2022-09-23T06:17:55.871Z,86.10
2022-09-23T06:20:22.242Z,87.17
2022-09-23T06:22:52.913Z,85.75
2022-09-23T06:25:23.064Z,85.58
2022-09-23T06:27:55.603Z,85.45
2022-09-23T06:30:22.296Z,84.40
2022-09-23T06:32:50.319Z,84.32
2022-09-23T06:35:26.368Z,85.48
2022-09-23T06:37:53.873Z,84.29
2022-09-23T06:40:20.641Z,83.82
2022-09-23T06:42:51.494Z,85.24
2022-09-23T06:45:18.689Z,85.04
2022-09-23T06:47:45.040Z,85.76
2022-09-23T06:50:12.465Z,86.38
2022-09-23T06:52:38.985Z,85.61
2022-09-23T06:55:05.581Z,87.09
2022-09-23T06:57:32.795Z,86.58
2022-09-23T06:59:59.295Z,86.17
2022-09-23T07:02:26.241Z,86.33
2022-09-23T07:04:52.864Z,85.04
2022-09-23T07:07:19.241Z,84.42
2022-09-23T07:09:45.746Z,84.92
2022-09-23T07:12:12.273Z,84.71
2022-09-23T07:14:38.612Z,83.24
2022-09-23T07:17:04.977Z,81.94
2022-09-23T07:19:31.488Z,82.17
2022-09-23T07:21:57.853Z,81.53
2022-09-23T07:24:24.189Z,82.57
2022-09-23T07:26:50.579Z,79.82
2022-09-23T07:29:16.900Z,79.67
2022-09-23T07:31:43.247Z,79.49
2022-09-23T07:34:11.570Z,80.76
2022-09-23T07:36:40.621Z,80.49
2022-09-23T07:39:08.044Z,79.40
2022-09-23T07:41:34.527Z,77.35
2022-09-23T07:44:01.209Z,78.88
2022-09-23T07:46:28.499Z,79.47
2022-09-23T07:48:54.929Z,78.38
2022-09-23T07:51:35.724Z,78.04
2022-09-23T07:54:02.886Z,79.46
2022-09-23T07:56:29.678Z,77.75
2022-09-23T07:59:03.805Z,78.27
2022-09-23T08:01:34.100Z,78.76
2022-09-23T08:04:01.383Z,77.39
2022-09-23T08:06:27.730Z,77.26
2022-09-23T08:08:54.048Z,77.45
2022-09-23T08:11:20.386Z,79.56
2022-09-23T08:13:46.719Z,80.32
2022-09-23T08:16:13.946Z,79.85
2022-09-23T08:18:43.289Z,76.54
2022-09-23T08:21:09.666Z,76.20
2022-09-23T08:23:36.011Z,79.22
2022-09-23T08:26:03.295Z,78.00
2022-09-23T08:28:29.648Z,78.84
2022-09-23T08:30:56.066Z,77.08
2022-09-23T08:33:23.574Z,75.43
2022-09-23T08:35:50.307Z,73.77
2022-09-23T08:38:16.635Z,74.09
2022-09-23T08:40:43.929Z,76.81
2022-09-23T08:43:25.357Z,75.03
2022-09-23T08:45:52.167Z,73.89
2022-09-23T08:48:21.187Z,74.85
2022-09-23T08:50:48.480Z,74.21
2022-09-23T08:53:23.505Z,74.78
2022-09-23T08:55:51.108Z,76.06
2022-09-23T08:58:26.809Z,74.84
2022-09-23T09:01:07.476Z,74.78
2022-09-23T09:03:39.760Z,73.66
2022-09-23T09:06:06.501Z,73.71
2022-09-23T09:08:33.421Z,75.19
2022-09-23T09:11:00.036Z,74.99
2022-09-23T09:13:36.900Z,74.49
2022-09-23T09:16:15.888Z,73.67
2022-09-23T09:18:49.107Z,76.16
2022-09-23T09:21:15.991Z,75.72
2022-09-23T09:23:45.291Z,73.72
2022-09-23T09:26:12.124Z,72.40
2022-09-23T09:28:39.969Z,73.73
2022-09-23T09:31:15.380Z,74.19
2022-09-23T09:33:46.284Z,74.09
2022-09-23T09:36:19.071Z,72.59
2022-09-23T09:38:45.456Z,73.07
2022-09-23T09:41:15.794Z,72.48
2022-09-23T09:43:44.112Z,73.25
2022-09-23T09:46:45.182Z,74.02
2022-09-23T09:49:23.267Z,72.62
2022-09-23T09:52:11.546Z,73.58
2022-09-23T09:54:38.640Z,70.02
2022-09-23T09:57:05.316Z,71.96
2022-09-23T09:59:31.646Z,72.11
2022-09-23T10:02:16.867Z,71.26
2022-09-23T10:04:43.433Z,72.53
2022-09-23T10:07:13.965Z,72.07
2022-09-23T10:09:41.188Z,75.07
2022-09-23T10:12:18.455Z,73.74
2022-09-23T10:14:45.267Z,73.37
2022-09-23T10:17:15.156Z,72.43
2022-09-23T10:19:44.710Z,72.75
2022-09-23T10:22:16.427Z,72.94
2022-09-23T10:24:42.763Z,69.34
2022-09-23T10:27:09.446Z,68.64
2022-09-23T10:29:39.630Z,68.68
2022-09-23T10:32:20.231Z,67.84
2022-09-23T10:34:51.478Z,66.25
2022-09-23T10:37:18.699Z,67.52
2022-09-23T10:40:03.832Z,67.42
2022-09-23T10:43:08.194Z,67.98
2022-09-23T10:45:53.471Z,69.38
2022-09-23T10:48:24.655Z,67.39
2022-09-23T10:50:53.967Z,64.91
2022-09-23T10:53:29.691Z,65.14
2022-09-23T10:56:00.116Z,64.94
2022-09-23T10:58:45.344Z,65.44
2022-09-23T11:01:31.087Z,64.76
2022-09-23T11:04:14.690Z,64.53
2022-09-23T11:06:44.169Z,65.01
2022-09-23T11:09:30.039Z,64.72
2022-09-23T11:12:14.730Z,63.86
2022-09-23T11:14:46.887Z,62.84
2022-09-23T11:17:32.138Z,63.56
2022-09-23T11:20:02.826Z,62.87
2022-09-23T11:22:37.379Z,62.53
2022-09-23T11:25:18.250Z,61.79
2022-09-23T11:27:50.880Z,63.77
2022-09-23T11:30:19.924Z,62.97
2022-09-23T11:32:51.159Z,63.46
2022-09-23T11:35:36.172Z,66.79
2022-09-23T11:38:11.956Z,64.54
2022-09-23T11:40:42.390Z,63.52
2022-09-23T11:43:18.951Z,62.52
2022-09-23T11:45:52.636Z,64.33
2022-09-23T11:48:20.639Z,63.07
2022-09-23T11:50:58.583Z,65.28
2022-09-23T11:53:37.311Z,64.44
2022-09-23T11:56:05.785Z,64.73
2022-09-23T12:01:07.356Z,63.65
2022-09-23T12:03:43.917Z,62.18
2022-09-23T12:06:13.824Z,61.95
2022-09-23T12:08:40.198Z,62.38
2022-09-23T12:11:15.981Z,63.07
2022-09-23T12:13:42.242Z,65.46
2022-09-23T12:16:10.026Z,64.27
2022-09-23T12:18:39.375Z,63.18
2022-09-23T12:21:05.686Z,61.00
2022-09-23T12:23:36.633Z,63.37
2022-09-23T12:26:03.686Z,63.18
2022-09-23T12:28:37.686Z,60.38
2022-09-23T12:31:04.673Z,60.92
2022-09-23T12:33:34.127Z,61.46
2022-09-23T12:36:07.451Z,62.85
2022-09-23T12:38:40.465Z,60.75
2022-09-23T12:41:20.626Z,61.29
2022-09-23T12:43:55.528Z,60.82
2022-09-23T12:46:28.092Z,60.06
2022-09-23T12:48:57.854Z,60.02
2022-09-23T12:51:28.194Z,60.83
2022-09-23T12:53:55.547Z,60.49
2022-09-23T12:56:23.111Z,61.51
2022-09-23T12:58:49.451Z,61.31
2022-09-23T13:01:17.082Z,62.85
2022-09-23T13:04:09.079Z,60.89
2022-09-23T13:06:51.363Z,60.89
2022-09-23T13:09:20.015Z,63.20
2022-09-23T13:11:47.965Z,60.52
2022-09-23T13:14:21.957Z,59.44
2022-09-23T13:16:51.680Z,59.52
2022-09-23T13:19:27.209Z,61.30
2022-09-23T13:21:53.517Z,58.37
2022-09-23T13:24:22.864Z,57.12
2022-09-23T13:26:57.212Z,58.54
2022-09-23T13:29:24.111Z,57.88
2022-09-23T13:31:50.586Z,55.83
2022-09-23T13:34:18.477Z,57.08
2022-09-23T13:36:45.401Z,58.08
2022-09-23T13:39:16.129Z,54.84
2022-09-23T13:41:43.335Z,59.27
2022-09-23T13:44:13.252Z,56.27
2022-09-23T13:46:44.278Z,56.21
2022-09-23T13:49:24.544Z,60.58
2022-09-23T13:51:51.557Z,59.10
2022-09-23T13:54:26.786Z,57.95
2022-09-23T13:56:53.101Z,56.97
2022-09-23T13:59:24.029Z,57.94
2022-09-23T14:01:50.445Z,57.05
2022-09-23T14:04:24.300Z,59.48
2022-09-23T14:06:50.620Z,59.66
2022-09-23T14:09:22.833Z,57.60
2022-09-23T14:11:49.485Z,57.75
2022-09-23T14:14:15.814Z,57.54
2022-09-23T14:16:42.231Z,59.03
2022-09-23T14:19:11.436Z,61.30
2022-09-23T14:21:38.339Z,59.05
2022-09-23T14:24:21.005Z,59.60
2022-09-23T14:26:48.661Z,58.95
2022-09-23T14:29:23.614Z,58.56
2022-09-23T14:31:57.316Z,58.15
2022-09-23T14:34:42.559Z,61.35
2022-09-23T14:37:47.718Z,61.79
2022-09-23T14:40:15.277Z,58.08
2022-09-23T14:42:42.605Z,56.92
2022-09-23T14:45:10.502Z,58.56
2022-09-23T14:47:36.861Z,56.90
2022-09-23T14:50:22.077Z,56.42
2022-09-23T14:52:51.671Z,57.57
2022-09-23T14:55:18.308Z,57.82
2022-09-23T14:57:44.796Z,58.20
2022-09-23T15:00:16.145Z,58.59
2022-09-23T15:02:43.251Z,58.20
2022-09-23T15:05:19.809Z,56.65
2022-09-23T15:07:50.356Z,58.10
2022-09-23T15:10:17.930Z,62.15
2022-09-23T15:12:44.839Z,62.56
2022-09-23T15:15:14.243Z,63.51
2022-09-23T15:17:40.630Z,67.97
2022-09-23T15:20:08.496Z,68.90
2022-09-23T15:22:45.266Z,67.64
2022-09-23T15:25:15.753Z,66.53
2022-09-23T15:27:42.104Z,70.20
2022-09-23T15:30:15.820Z,73.46
2022-09-23T15:32:42.685Z,74.67
2022-09-23T15:35:15.614Z,74.28
2022-09-23T15:37:42.851Z,76.35
2022-09-23T15:40:28.159Z,76.40
2022-09-23T15:42:56.094Z,77.03
2022-09-23T15:45:33.344Z,79.39
2022-09-23T15:48:00.859Z,79.16
2022-09-23T15:50:27.457Z,79.90
2022-09-23T15:52:53.893Z,78.88
2022-09-23T15:55:23.539Z,80.71
2022-09-23T15:57:49.950Z,80.82
2022-09-23T16:00:16.502Z,79.84
2022-09-23T16:02:43.862Z,81.08
2022-09-23T16:05:21.942Z,80.70
2022-09-23T16:07:48.593Z,81.27
2022-09-23T16:10:15.394Z,82.75
2022-09-23T16:12:41.715Z,81.43
2022-09-23T16:15:13.267Z,79.58
2022-09-23T16:17:39.629Z,81.57
2022-09-23T16:20:06.145Z,81.67
2022-09-23T16:22:32.458Z,82.57
2022-09-23T16:24:58.811Z,80.69
2022-09-23T16:27:26.033Z,81.09
2022-09-23T16:29:52.358Z,82.26
2022-09-23T16:32:22.129Z,80.83
2022-09-23T16:34:48.694Z,79.79
2022-09-23T16:37:16.613Z,81.12
2022-09-23T16:39:42.972Z,83.38
2022-09-23T16:42:09.813Z,84.92
2022-09-23T16:44:37.325Z,85.10
2022-09-23T16:47:03.921Z,84.06
2022-09-23T16:49:30.292Z,84.28
2022-09-23T16:51:56.630Z,84.15
2022-09-23T16:54:23.885Z,82.76
2022-09-23T16:56:50.699Z,83.92
2022-09-23T16:59:17.135Z,85.42
2022-09-23T17:02:02.778Z,86.06
2022-09-23T17:04:29.195Z,87.04
2022-09-23T17:06:56.387Z,87.79
2022-09-23T17:09:30.212Z,88.97
2022-09-23T17:12:11.281Z,88.03
2022-09-23T17:14:37.837Z,88.56
2022-09-23T17:17:04.188Z,87.14
2022-09-23T17:19:30.510Z,87.03
2022-09-23T17:21:57.089Z,87.87
2022-09-23T17:24:23.815Z,88.80
2022-09-23T17:26:53.114Z,89.50
2022-09-23T17:29:19.804Z,88.86
2022-09-23T17:31:46.589Z,89.50
2022-09-23T17:34:13.010Z,87.06
2022-09-23T17:36:39.775Z,86.88
2022-09-23T17:39:06.985Z,87.64
2022-09-23T17:41:33.319Z,86.61
2022-09-23T17:44:00.537Z,86.04
2022-09-23T17:46:30.876Z,86.41
2022-09-23T17:48:57.223Z,87.22
2022-09-23T17:51:23.979Z,87.19
2022-09-23T17:53:50.306Z,87.12
2022-09-23T17:56:17.700Z,88.27
2022-09-23T17:58:44.639Z,88.00
2022-09-23T18:01:11.619Z,87.70
2022-09-23T18:03:38.093Z,87.51
2022-09-23T18:06:08.337Z,87.82
2022-09-23T18:08:34.729Z,84.72
2022-09-23T18:11:01.080Z,83.46
2022-09-23T18:13:27.743Z,80.74
2022-09-23T18:15:54.147Z,82.13
2022-09-23T18:18:20.500Z,84.30
2022-09-23T18:20:46.872Z,82.04
2022-09-23T18:23:13.205Z,81.76
2022-09-23T18:25:40.142Z,81.55
2022-09-23T18:28:06.636Z,78.90
2022-09-23T18:30:33.417Z,77.17
2022-09-23T18:32:59.964Z,75.20
2022-09-23T18:35:26.500Z,74.54
2022-09-23T18:37:52.838Z,75.39
2022-09-23T18:40:19.250Z,74.16
2022-09-23T18:42:45.650Z,73.58
2022-09-23T18:45:12.043Z,70.88
2022-09-23T18:47:57.158Z,72.07
2022-09-23T18:50:43.684Z,71.51
2022-09-23T18:53:10.143Z,72.04
2022-09-23T18:55:36.539Z,71.01
2022-09-23T18:58:02.936Z,76.30
2022-09-23T19:00:29.961Z,79.60
2022-09-23T19:02:56.439Z,80.36
2022-09-23T19:05:22.782Z,81.94
2022-09-23T19:07:49.145Z,83.05
2022-09-23T19:10:15.465Z,83.42
2022-09-23T19:12:41.815Z,83.03
2022-09-23T19:15:08.221Z,83.05
2022-09-23T19:17:34.585Z,81.79
2022-09-23T19:20:00.972Z,83.22
2022-09-23T19:22:27.608Z,86.03
2022-09-23T19:24:53.919Z,86.03
2022-09-23T19:27:20.259Z,86.59
2022-09-23T19:29:47.391Z,85.51
2022-09-23T19:32:16.585Z,86.63
2022-09-23T19:34:44.219Z,87.09
2022-09-23T19:37:10.623Z,88.43
2022-09-23T19:39:37.546Z,88.55
2022-09-23T19:42:04.264Z,88.90
2022-09-23T19:44:30.649Z,90.99
2022-09-23T19:46:57.621Z,92.20
2022-09-23T19:49:24.681Z,91.83
2022-09-23T19:51:51.470Z,93.11
2022-09-23T19:54:21.071Z,92.03
2022-09-23T19:56:48.593Z,90.83
2022-09-23T19:59:18.486Z,90.10
2022-09-23T20:01:45.659Z,88.49
2022-09-23T20:04:12.032Z,85.78
2022-09-23T20:06:38.854Z,85.02
2022-09-23T20:09:05.286Z,78.20
2022-09-23T20:11:32.433Z,74.92
2022-09-23T20:14:01.653Z,73.23
2022-09-23T20:16:29.218Z,73.06
2022-09-23T20:18:56.204Z,77.12
2022-09-23T20:21:22.699Z,75.09
2022-09-23T20:23:49.025Z,75.31
2022-09-23T20:26:34.219Z,74.50
2022-09-23T20:29:01.308Z,79.61
2022-09-23T20:31:28.633Z,79.86
2022-09-23T20:33:58.122Z,80.77
2022-09-23T20:36:27.928Z,80.21
2022-09-23T20:38:59.373Z,79.86
2022-09-23T20:41:26.673Z,76.96
2022-09-23T20:43:56.060Z,75.89
2022-09-23T20:46:25.804Z,77.17
2022-09-23T20:48:52.250Z,74.35
2022-09-23T20:51:18.649Z,76.15
2022-09-23T20:53:45.721Z,72.90
2022-09-23T20:56:13.374Z,74.29
2022-09-23T20:58:40.409Z,78.89
2022-09-23T21:01:10.770Z,76.11
2022-09-23T21:03:38.572Z,74.91
2022-09-23T21:06:05.446Z,78.38
2022-09-23T21:08:33.229Z,79.09
2022-09-23T21:11:00.186Z,79.35
2022-09-23T21:13:26.535Z,78.83
2022-09-23T21:15:52.896Z,77.26
2022-09-23T21:18:22.511Z,80.87
2022-09-23T21:20:55.469Z,78.78
2022-09-23T21:23:29.222Z,77.17
2022-09-23T21:26:08.474Z,78.62
2022-09-23T21:28:41.486Z,76.19
2022-09-23T21:31:08.593Z,77.68
2022-09-23T21:33:37.326Z,81.07
2022-09-23T21:36:04.110Z,82.00
2022-09-23T21:38:30.819Z,83.95
2022-09-23T21:40:58.226Z,84.77
2022-09-23T21:43:28.094Z,84.99
2022-09-23T21:45:57.154Z,87.38
2022-09-23T21:48:24.276Z,88.44
2022-09-23T21:50:54.529Z,87.61
2022-09-23T21:53:21.165Z,87.97
2022-09-23T21:55:48.676Z,88.65
2022-09-23T21:58:14.998Z,88.00
2022-09-23T22:00:41.346Z,87.68
2022-09-23T22:03:08.126Z,89.94
2022-09-23T22:05:34.462Z,85.29
2022-09-23T22:08:00.834Z,88.83
2022-09-23T22:10:27.146Z,88.72
2022-09-23T22:12:53.478Z,89.82
2022-09-23T22:15:20.279Z,90.74
2022-09-23T22:17:48.051Z,89.35
2022-09-23T22:20:15.936Z,90.05
2022-09-23T22:22:42.284Z,89.77
2022-09-23T22:25:08.856Z,90.06
2022-09-23T22:27:55.152Z,91.07
2022-09-23T22:30:40.309Z,90.01
2022-09-23T22:33:07.004Z,89.92
2022-09-23T22:35:33.320Z,91.42
2022-09-23T22:38:00.977Z,91.86
2022-09-23T22:40:27.355Z,90.58
2022-09-23T22:42:54.221Z,91.71
2022-09-23T22:45:20.593Z,91.26
2022-09-23T22:47:46.943Z,91.32
2022-09-23T22:50:14.364Z,91.03
2022-09-23T22:52:41.137Z,91.17
2022-09-23T22:55:10.392Z,91.29
2022-09-23T22:57:36.835Z,92.41
2022-09-23T23:00:04.286Z,90.96
2022-09-23T23:02:31.480Z,88.99
2022-09-23T23:05:00.277Z,89.00
2022-09-23T23:07:26.624Z,87.85
2022-09-23T23:09:53.259Z,88.32
2022-09-23T23:12:20.129Z,87.88
2022-09-23T23:14:46.886Z,88.31
2022-09-23T23:17:13.285Z,87.18
2022-09-23T23:19:39.614Z,89.45
2022-09-23T23:22:05.963Z,89.08
2022-09-23T23:24:32.362Z,89.74
2022-09-23T23:26:58.705Z,89.74
2022-09-23T23:29:25.026Z,89.56
2022-09-23T23:31:51.557Z,90.43
2022-09-23T23:34:18.675Z,90.35
2022-09-23T23:36:45.726Z,88.11
2022-09-23T23:39:12.286Z,88.40
2022-09-23T23:41:39.513Z,87.76
2022-09-23T23:44:05.857Z,87.56
2022-09-23T23:46:32.418Z,88.81
2022-09-23T23:48:58.967Z,92.00
2022-09-23T23:51:26.496Z,91.65
2022-09-23T23:53:55.864Z,91.75
2022-09-23T23:56:22.910Z,93.20
2022-09-23T23:58:53.227Z,89.35
